sensor_id;sensor_type;location;lat;lon;timestamp;pressure;altitude;pressure_sealevel;temperature;humidity
21545;BME280;10933;50.754;11.508;2022-08-19T00:00:28;99115.53;;;18.44;100.00
21545;BME280;10933;50.754;11.508;2022-08-19T00:02:54;99109.28;;;18.43;100.00
21545;BME280;10933;50.754;11.508;2022-08-19T00:05:21;99113.56;;;18.36;100.00
21545;BME280;10933;50.754;11.508;2022-08-19T00:07:49;99108.09;;;18.36;100.00
21545;BME280;10933;50.754;11.508;2022-08-19T00:10:17;99109.38;;;18.30;100.00
21545;BME280;10933;50.754;11.508;2022-08-19T00:12:43;99100.31;;;18.20;100.00
21545;BME280;10933;50.754;11.508;2022-08-19T00:15:14;99095.66;;;18.21;100.00
21545;BME280;10933;50.754;11.508;2022-08-19T00:17:43;99102.41;;;18.23;100.00
21545;BME280;10933;50.754;11.508;2022-08-19T00:20:14;99106.75;;;18.24;100.00
21545;BME280;10933;50.754;11.508;2022-08-19T00:22:43;99099.69;;;18.23;100.00
21545;BME280;10933;50.754;11.508;2022-08-19T00:25:10;99096.81;;;18.29;100.00
21545;BME280;10933;50.754;11.508;2022-08-19T00:27:37;99092.59;;;18.22;100.00
21545;BME280;10933;50.754;11.508;2022-08-19T00:30:05;99079.09;;;18.17;100.00
21545;BME280;10933;50.754;11.508;2022-08-19T00:32:34;99079.28;;;18.21;100.00
21545;BME280;10933;50.754;11.508;2022-08-19T00:35:01;99071.63;;;18.32;100.00
21545;BME280;10933;50.754;11.508;2022-08-19T00:37:27;99070.34;;;18.38;100.00
21545;BME280;10933;50.754;11.508;2022-08-19T00:39:54;99065.22;;;18.36;100.00
21545;BME280;10933;50.754;11.508;2022-08-19T00:42:22;99066.81;;;18.37;100.00
21545;BME280;10933;50.754;11.508;2022-08-19T00:44:49;99065.16;;;18.28;100.00
21545;BME280;10933;50.754;11.508;2022-08-19T00:47:16;99056.00;;;18.23;100.00
21545;BME280;10933;50.754;11.508;2022-08-19T00:49:48;99059.25;;;18.34;100.00
21545;BME280;10933;50.754;11.508;2022-08-19T00:52:26;99063.50;;;18.49;100.00
21545;BME280;10933;50.754;11.508;2022-08-19T00:54:56;99052.53;;;18.40;100.00
21545;BME280;10933;50.754;11.508;2022-08-19T00:57:28;99048.56;;;18.46;100.00
21545;BME280;10933;50.754;11.508;2022-08-19T00:59:57;99041.03;;;18.52;100.00
21545;BME280;10933;50.754;11.508;2022-08-19T01:02:24;99034.25;;;18.49;100.00
21545;BME280;10933;50.754;11.508;2022-08-19T01:04:50;99039.25;;;18.47;100.00
21545;BME280;10933;50.754;11.508;2022-08-19T01:07:17;99034.22;;;18.41;100.00
21545;BME280;10933;50.754;11.508;2022-08-19T01:09:44;99029.41;;;18.38;100.00
21545;BME280;10933;50.754;11.508;2022-08-19T01:12:10;99023.13;;;18.37;100.00
21545;BME280;10933;50.754;11.508;2022-08-19T01:14:39;99024.56;;;18.35;100.00
21545;BME280;10933;50.754;11.508;2022-08-19T01:17:09;99022.00;;;18.30;100.00
21545;BME280;10933;50.754;11.508;2022-08-19T01:19:39;99021.16;;;18.29;100.00
21545;BME280;10933;50.754;11.508;2022-08-19T01:24:47;99006.41;;;18.30;100.00
21545;BME280;10933;50.754;11.508;2022-08-19T01:27:14;99005.63;;;18.30;100.00
21545;BME280;10933;50.754;11.508;2022-08-19T01:29:41;98992.09;;;18.24;100.00
21545;BME280;10933;50.754;11.508;2022-08-19T01:32:10;98989.66;;;18.23;100.00
21545;BME280;10933;50.754;11.508;2022-08-19T01:34:38;98988.38;;;18.20;100.00
21545;BME280;10933;50.754;11.508;2022-08-19T01:37:09;98979.06;;;18.21;100.00
21545;BME280;10933;50.754;11.508;2022-08-19T01:39:39;98977.94;;;18.22;100.00
21545;BME280;10933;50.754;11.508;2022-08-19T01:42:06;98991.59;;;18.22;100.00
21545;BME280;10933;50.754;11.508;2022-08-19T01:44:37;98997.38;;;18.21;100.00
21545;BME280;10933;50.754;11.508;2022-08-19T01:47:04;99007.97;;;18.22;100.00
21545;BME280;10933;50.754;11.508;2022-08-19T01:49:30;99003.00;;;18.24;100.00
21545;BME280;10933;50.754;11.508;2022-08-19T01:51:56;98990.97;;;18.26;100.00
21545;BME280;10933;50.754;11.508;2022-08-19T01:54:25;98984.38;;;18.27;100.00
21545;BME280;10933;50.754;11.508;2022-08-19T01:57:14;98980.41;;;18.33;100.00
21545;BME280;10933;50.754;11.508;2022-08-19T01:59:41;98978.13;;;18.26;100.00
21545;BME280;10933;50.754;11.508;2022-08-19T02:02:08;98975.38;;;18.26;100.00
21545;BME280;10933;50.754;11.508;2022-08-19T02:04:35;98984.38;;;18.27;100.00
21545;BME280;10933;50.754;11.508;2022-08-19T02:07:03;98984.56;;;18.30;100.00
21545;BME280;10933;50.754;11.508;2022-08-19T02:09:31;98990.31;;;18.29;100.00
21545;BME280;10933;50.754;11.508;2022-08-19T02:11:58;98984.75;;;18.34;100.00
21545;BME280;10933;50.754;11.508;2022-08-19T02:14:24;98986.97;;;18.32;100.00
21545;BME280;10933;50.754;11.508;2022-08-19T02:16:50;98994.84;;;18.33;100.00
21545;BME280;10933;50.754;11.508;2022-08-19T02:19:17;98994.22;;;18.36;100.00
21545;BME280;10933;50.754;11.508;2022-08-19T02:21:43;98986.97;;;18.32;100.00
21545;BME280;10933;50.754;11.508;2022-08-19T02:24:09;98986.69;;;18.42;100.00
21545;BME280;10933;50.754;11.508;2022-08-19T02:26:36;98995.50;;;18.39;100.00
21545;BME280;10933;50.754;11.508;2022-08-19T02:29:02;98999.50;;;18.33;100.00
21545;BME280;10933;50.754;11.508;2022-08-19T02:31:28;99001.78;;;18.39;100.00
21545;BME280;10933;50.754;11.508;2022-08-19T02:33:56;99000.47;;;18.37;100.00
21545;BME280;10933;50.754;11.508;2022-08-19T02:36:23;99009.94;;;18.31;100.00
21545;BME280;10933;50.754;11.508;2022-08-19T02:38:50;99009.78;;;18.36;100.00
21545;BME280;10933;50.754;11.508;2022-08-19T02:41:31;99019.31;;;18.47;100.00
21545;BME280;10933;50.754;11.508;2022-08-19T02:43:59;99031.81;;;18.39;100.00
21545;BME280;10933;50.754;11.508;2022-08-19T02:46:29;99046.91;;;18.37;100.00
21545;BME280;10933;50.754;11.508;2022-08-19T02:48:59;99066.03;;;18.37;100.00
21545;BME280;10933;50.754;11.508;2022-08-19T02:51:36;99065.38;;;18.40;100.00
21545;BME280;10933;50.754;11.508;2022-08-19T02:54:04;99071.22;;;18.47;100.00
21545;BME280;10933;50.754;11.508;2022-08-19T02:56:34;99077.91;;;18.41;100.00
21545;BME280;10933;50.754;11.508;2022-08-19T02:59:00;99078.69;;;18.33;100.00
21545;BME280;10933;50.754;11.508;2022-08-19T03:01:30;99078.69;;;18.33;100.00
21545;BME280;10933;50.754;11.508;2022-08-19T03:03:58;99093.81;;;18.39;100.00
21545;BME280;10933;50.754;11.508;2022-08-19T03:06:25;99091.88;;;18.39;100.00
21545;BME280;10933;50.754;11.508;2022-08-19T03:08:52;99090.75;;;18.32;100.00
21545;BME280;10933;50.754;11.508;2022-08-19T03:11:42;99095.72;;;18.30;100.00
21545;BME280;10933;50.754;11.508;2022-08-19T03:14:09;99097.94;;;18.28;100.00
21545;BME280;10933;50.754;11.508;2022-08-19T03:16:42;99106.13;;;18.28;100.00
21545;BME280;10933;50.754;11.508;2022-08-19T03:19:08;99097.81;;;18.33;100.00
21545;BME280;10933;50.754;11.508;2022-08-19T03:21:35;99100.22;;;18.34;100.00
21545;BME280;10933;50.754;11.508;2022-08-19T03:24:05;99100.53;;;18.33;100.00
21545;BME280;10933;50.754;11.508;2022-08-19T03:26:32;99096.19;;;18.32;100.00
21545;BME280;10933;50.754;11.508;2022-08-19T03:29:03;99099.41;;;18.34;100.00
21545;BME280;10933;50.754;11.508;2022-08-19T03:31:33;99099.25;;;18.30;100.00
21545;BME280;10933;50.754;11.508;2022-08-19T03:33:59;99110.66;;;18.32;100.00
21545;BME280;10933;50.754;11.508;2022-08-19T03:36:26;99099.25;;;18.30;100.00
21545;BME280;10933;50.754;11.508;2022-08-19T03:38:55;99103.91;;;18.30;100.00
21545;BME280;10933;50.754;11.508;2022-08-19T03:41:26;99106.91;;;18.28;100.00
21545;BME280;10933;50.754;11.508;2022-08-19T03:43:54;99106.63;;;18.30;100.00
21545;BME280;10933;50.754;11.508;2022-08-19T03:46:26;99107.72;;;18.29;100.00
21545;BME280;10933;50.754;11.508;2022-08-19T03:48:55;99110.78;;;18.27;100.00
21545;BME280;10933;50.754;11.508;2022-08-19T03:51:27;99113.31;;;18.23;100.00
21545;BME280;10933;50.754;11.508;2022-08-19T03:53:55;99114.44;;;18.22;100.00
21545;BME280;10933;50.754;11.508;2022-08-19T03:56:22;99117.03;;;18.28;100.00
21545;BME280;10933;50.754;11.508;2022-08-19T03:58:48;99117.41;;;18.35;100.00
21545;BME280;10933;50.754;11.508;2022-08-19T04:01:17;99122.25;;;18.38;100.00
21545;BME280;10933;50.754;11.508;2022-08-19T04:03:45;99116.78;;;18.38;100.00
21545;BME280;10933;50.754;11.508;2022-08-19T04:06:22;99115.63;;;18.30;100.00
21545;BME280;10933;50.754;11.508;2022-08-19T04:08:51;99118.47;;;18.25;100.00
21545;BME280;10933;50.754;11.508;2022-08-19T04:11:22;99096.81;;;18.29;100.00
21545;BME280;10933;50.754;11.508;2022-08-19T04:13:50;99090.25;;;18.30;100.00
21545;BME280;10933;50.754;11.508;2022-08-19T04:16:18;99089.31;;;18.34;100.00
21545;BME280;10933;50.754;11.508;2022-08-19T04:18:48;99093.78;;;18.30;100.00
21545;BME280;10933;50.754;11.508;2022-08-19T04:21:23;99095.19;;;18.28;100.00
21545;BME280;10933;50.754;11.508;2022-08-19T04:23:54;99095.41;;;18.31;100.00
21545;BME280;10933;50.754;11.508;2022-08-19T04:26:23;99095.09;;;18.33;100.00
21545;BME280;10933;50.754;11.508;2022-08-19T04:28:51;99107.63;;;18.34;100.00
21545;BME280;10933;50.754;11.508;2022-08-19T04:31:20;99091.72;;;18.36;100.00
21545;BME280;10933;50.754;11.508;2022-08-19T04:33:46;99091.97;;;18.26;100.00
21545;BME280;10933;50.754;11.508;2022-08-19T04:36:17;99093.31;;;18.37;100.00
21545;BME280;10933;50.754;11.508;2022-08-19T04:38:46;99085.41;;;18.27;100.00
21545;BME280;10933;50.754;11.508;2022-08-19T04:41:13;99093.78;;;18.30;100.00
21545;BME280;10933;50.754;11.508;2022-08-19T04:43:58;99089.47;;;18.38;100.00
21545;BME280;10933;50.754;11.508;2022-08-19T04:46:24;99088.66;;;18.37;100.00
21545;BME280;10933;50.754;11.508;2022-08-19T04:48:50;99095.72;;;18.30;100.00
21545;BME280;10933;50.754;11.508;2022-08-19T04:51:16;99097.81;;;18.33;100.00
21545;BME280;10933;50.754;11.508;2022-08-19T04:53:43;99088.50;;;18.34;100.00
21545;BME280;10933;50.754;11.508;2022-08-19T04:56:17;99078.38;;;18.34;100.00
21545;BME280;10933;50.754;11.508;2022-08-19T04:58:44;99078.69;;;18.33;100.00
21545;BME280;10933;50.754;11.508;2022-08-19T05:01:17;99085.78;;;18.34;100.00
21545;BME280;10933;50.754;11.508;2022-08-19T05:03:43;99080.13;;;18.30;100.00
21545;BME280;10933;50.754;11.508;2022-08-19T05:06:12;99081.34;;;18.46;100.00
21545;BME280;10933;50.754;11.508;2022-08-19T05:08:40;99079.41;;;18.47;100.00
21545;BME280;10933;50.754;11.508;2022-08-19T05:11:25;99086.66;;;18.51;100.00
21545;BME280;10933;50.754;11.508;2022-08-19T05:13:52;99089.03;;;18.44;100.00
21545;BME280;10933;50.754;11.508;2022-08-19T05:16:20;99091.88;;;18.39;100.00
21545;BME280;10933;50.754;11.508;2022-08-19T05:18:47;99095.00;;;18.46;100.00
21545;BME280;10933;50.754;11.508;2022-08-19T05:21:33;99094.31;;;18.41;100.00
21545;BME280;10933;50.754;11.508;2022-08-19T05:24:20;99097.72;;;18.46;100.00
21545;BME280;10933;50.754;11.508;2022-08-19T05:26:49;99100.31;;;18.51;100.00
21545;BME280;10933;50.754;11.508;2022-08-19T05:29:18;99099.50;;;18.51;100.00
21545;BME280;10933;50.754;11.508;2022-08-19T05:31:46;99104.47;;;18.49;100.00
21545;BME280;10933;50.754;11.508;2022-08-19T05:34:16;99106.56;;;18.52;100.00
21545;BME280;10933;50.754;11.508;2022-08-19T05:36:43;99122.97;;;18.52;100.00
21545;BME280;10933;50.754;11.508;2022-08-19T05:39:13;99113.66;;;18.53;100.00
21545;BME280;10933;50.754;11.508;2022-08-19T05:41:43;99109.31;;;18.52;100.00
21545;BME280;10933;50.754;11.508;2022-08-19T05:44:10;99126.38;;;18.58;100.00
21545;BME280;10933;50.754;11.508;2022-08-19T05:46:37;99125.56;;;18.57;100.00
21545;BME280;10933;50.754;11.508;2022-08-19T05:49:07;99121.72;;;18.58;100.00
21545;BME280;10933;50.754;11.508;2022-08-19T05:51:35;99132.66;;;18.58;100.00
21545;BME280;10933;50.754;11.508;2022-08-19T05:54:02;99123.31;;;18.59;100.00
21545;BME280;10933;50.754;11.508;2022-08-19T05:56:29;99127.19;;;18.58;100.00
21545;BME280;10933;50.754;11.508;2022-08-19T05:58:57;99136.50;;;18.57;100.00
21545;BME280;10933;50.754;11.508;2022-08-19T06:01:25;99137.47;;;18.61;100.00
21545;BME280;10933;50.754;11.508;2022-08-19T06:03:52;99141.81;;;18.62;100.00
21545;BME280;10933;50.754;11.508;2022-08-19T06:06:19;99146.69;;;18.65;100.00
21545;BME280;10933;50.754;11.508;2022-08-19T06:08:46;99154.66;;;18.62;100.00
21545;BME280;10933;50.754;11.508;2022-08-19T06:13:42;99154.88;;;18.65;100.00
21545;BME280;10933;50.754;11.508;2022-08-19T06:16:09;99158.94;;;18.68;100.00
21545;BME280;10933;50.754;11.508;2022-08-19T06:18:35;99169.88;;;18.76;100.00
21545;BME280;10933;50.754;11.508;2022-08-19T06:21:01;99174.91;;;18.92;100.00
21545;BME280;10933;50.754;11.508;2022-08-19T06:23:30;99176.63;;;18.79;100.00
21545;BME280;10933;50.754;11.508;2022-08-19T06:25:56;99184.72;;;18.84;100.00
21545;BME280;10933;50.754;11.508;2022-08-19T06:28:22;99195.16;;;18.82;100.00
21545;BME280;10933;50.754;11.508;2022-08-19T06:30:49;99199.59;;;18.69;100.00
21545;BME280;10933;50.754;11.508;2022-08-19T06:33:17;99209.13;;;18.58;100.00
21545;BME280;10933;50.754;11.508;2022-08-19T06:35:43;99205.28;;;18.59;100.00
21545;BME280;10933;50.754;11.508;2022-08-19T06:38:09;99210.75;;;18.59;100.00
21545;BME280;10933;50.754;11.508;2022-08-19T06:40:36;99217.81;;;18.60;100.00
21545;BME280;10933;50.754;11.508;2022-08-19T06:43:04;99214.09;;;18.78;100.00
21545;BME280;10933;50.754;11.508;2022-08-19T06:45:30;99227.63;;;18.84;100.00
21545;BME280;10933;50.754;11.508;2022-08-19T06:47:56;99225.66;;;18.75;100.00
21545;BME280;10933;50.754;11.508;2022-08-19T06:50:25;99228.94;;;18.86;100.00
21545;BME280;10933;50.754;11.508;2022-08-19T06:52:52;99233.13;;;18.92;100.00
21545;BME280;10933;50.754;11.508;2022-08-19T06:55:18;99235.56;;;18.94;100.00
21545;BME280;10933;50.754;11.508;2022-08-19T06:57:44;99231.97;;;18.85;100.00
21545;BME280;10933;50.754;11.508;2022-08-19T07:00:12;99229.41;;;18.88;100.00
21545;BME280;10933;50.754;11.508;2022-08-19T07:02:41;99234.72;;;18.85;100.00
21545;BME280;10933;50.754;11.508;2022-08-19T07:05:08;99228.63;;;18.88;100.00
21545;BME280;10933;50.754;11.508;2022-08-19T07:07:34;99217.41;;;18.98;100.00
21545;BME280;10933;50.754;11.508;2022-08-19T07:10:00;99219.88;;;19.08;100.00
21545;BME280;10933;50.754;11.508;2022-08-19T07:12:31;99221.34;;;19.14;100.00
21545;BME280;10933;50.754;11.508;2022-08-19T07:15:00;99218.44;;;19.10;100.00
21545;BME280;10933;50.754;11.508;2022-08-19T07:17:27;99222.13;;;19.06;100.00
21545;BME280;10933;50.754;11.508;2022-08-19T07:19:53;99212.81;;;19.16;100.00
21545;BME280;10933;50.754;11.508;2022-08-19T07:22:21;99217.47;;;19.06;100.00
21545;BME280;10933;50.754;11.508;2022-08-19T07:24:48;99210.34;;;18.97;100.00
21545;BME280;10933;50.754;11.508;2022-08-19T07:27:15;99212.06;;;18.93;100.00
21545;BME280;10933;50.754;11.508;2022-08-19T07:29:41;99211.09;;;18.89;100.00
21545;BME280;10933;50.754;11.508;2022-08-19T07:32:08;99215.59;;;18.85;100.00
21545;BME280;10933;50.754;11.508;2022-08-19T07:34:35;99219.47;;;18.92;100.00
21545;BME280;10933;50.754;11.508;2022-08-19T07:37:05;99225.66;;;19.06;100.00
21545;BME280;10933;50.754;11.508;2022-08-19T07:39:33;99229.19;;;19.07;100.00
21545;BME280;10933;50.754;11.508;2022-08-19T07:42:02;99238.69;;;18.78;100.00
21545;BME280;10933;50.754;11.508;2022-08-19T07:44:29;99240.91;;;18.76;100.00
21545;BME280;10933;50.754;11.508;2022-08-19T07:46:57;99243.53;;;18.81;100.00
21545;BME280;10933;50.754;11.508;2022-08-19T07:49:23;99241.06;;;18.71;100.00
21545;BME280;10933;50.754;11.508;2022-08-19T07:51:54;99245.75;;;18.79;100.00
21545;BME280;10933;50.754;11.508;2022-08-19T07:54:22;99247.19;;;18.77;100.00
21545;BME280;10933;50.754;11.508;2022-08-19T07:56:49;99254.81;;;18.89;100.00
21545;BME280;10933;50.754;11.508;2022-08-19T07:59:17;99249.72;;;18.96;100.00
21545;BME280;10933;50.754;11.508;2022-08-19T08:01:44;99253.16;;;19.10;100.00
21545;BME280;10933;50.754;11.508;2022-08-19T08:04:10;99252.19;;;19.06;100.00
21545;BME280;10933;50.754;11.508;2022-08-19T08:06:55;99261.88;;;19.12;100.00
21545;BME280;10933;50.754;11.508;2022-08-19T08:09:42;99255.84;;;19.32;100.00
21545;BME280;10933;50.754;11.508;2022-08-19T08:12:21;99262.00;;;19.47;100.00
21545;BME280;10933;50.754;11.508;2022-08-19T08:14:52;99258.00;;;19.44;100.00
21545;BME280;10933;50.754;11.508;2022-08-19T08:17:22;99264.53;;;19.34;100.00
21545;BME280;10933;50.754;11.508;2022-08-19T08:19:48;99266.91;;;19.27;100.00
21545;BME280;10933;50.754;11.508;2022-08-19T08:22:18;99272.75;;;19.34;100.00
21545;BME280;10933;50.754;11.508;2022-08-19T08:25:15;99273.38;;;19.31;100.00
21545;BME280;10933;50.754;11.508;2022-08-19T08:27:44;99273.97;;;19.20;100.00
21545;BME280;10933;50.754;11.508;2022-08-19T08:30:13;99268.59;;;19.06;100.00
21545;BME280;10933;50.754;11.508;2022-08-19T08:32:40;99275.69;;;19.07;100.00
21545;BME280;10933;50.754;11.508;2022-08-19T08:35:09;99289.84;;;19.09;100.00
21545;BME280;10933;50.754;11.508;2022-08-19T08:37:36;99294.50;;;19.08;100.00
21545;BME280;10933;50.754;11.508;2022-08-19T08:40:30;99284.00;;;19.02;100.00
21545;BME280;10933;50.754;11.508;2022-08-19T08:43:04;99282.56;;;19.04;100.00
21545;BME280;10933;50.754;11.508;2022-08-19T08:45:35;99290.47;;;19.06;100.00
21545;BME280;10933;50.754;11.508;2022-08-19T08:48:08;99294.34;;;19.14;100.00
21545;BME280;10933;50.754;11.508;2022-08-19T08:50:43;99293.38;;;19.09;100.00
21545;BME280;10933;50.754;11.508;2022-08-19T08:53:16;99292.69;;;19.04;100.00
21545;BME280;10933;50.754;11.508;2022-08-19T08:55:43;99288.97;;;19.00;100.00
21545;BME280;10933;50.754;11.508;2022-08-19T08:58:31;99297.66;;;19.02;100.00
21545;BME280;10933;50.754;11.508;2022-08-19T09:01:09;99292.69;;;19.04;100.00
21545;BME280;10933;50.754;11.508;2022-08-19T09:03:41;99286.97;;;19.14;100.00
21545;BME280;10933;50.754;11.508;2022-08-19T09:06:14;99284.72;;;19.16;100.00
21545;BME280;10933;50.754;11.508;2022-08-19T09:08:59;99295.78;;;19.11;100.00
21545;BME280;10933;50.754;11.508;2022-08-19T09:17:04;99282.66;;;19.22;100.00
21545;BME280;10933;50.754;11.508;2022-08-19T09:19:35;99289.56;;;19.19;100.00
21545;BME280;10933;50.754;11.508;2022-08-19T09:22:02;99286.41;;;19.03;100.00
21545;BME280;10933;50.754;11.508;2022-08-19T09:24:28;99292.44;;;19.14;100.00
21545;BME280;10933;50.754;11.508;2022-08-19T09:26:55;99281.84;;;19.21;100.00
21545;BME280;10933;50.754;11.508;2022-08-19T09:29:21;99285.13;;;19.01;100.00
21545;BME280;10933;50.754;11.508;2022-08-19T09:31:47;99285.50;;;19.17;100.00
21545;BME280;10933;50.754;11.508;2022-08-19T09:34:13;99290.47;;;19.06;100.00
21545;BME280;10933;50.754;11.508;2022-08-19T09:36:40;99282.38;;;19.01;100.00
21545;BME280;10933;50.754;11.508;2022-08-19T09:39:07;99284.47;;;18.95;100.00
21545;BME280;10933;50.754;11.508;2022-08-19T09:41:33;99284.78;;;18.94;100.00
21545;BME280;10933;50.754;11.508;2022-08-19T09:43:59;99290.00;;;18.81;100.00
21545;BME280;10933;50.754;11.508;2022-08-19T09:46:28;99286.25;;;18.77;100.00
21545;BME280;10933;50.754;11.508;2022-08-19T09:48:56;99288.06;;;18.82;100.00
21545;BME280;10933;50.754;11.508;2022-08-19T09:51:25;99281.16;;;18.85;100.00
21545;BME280;10933;50.754;11.508;2022-08-19T09:53:55;99286.78;;;19.10;100.00
21545;BME280;10933;50.754;11.508;2022-08-19T09:56:25;99274.16;;;19.23;100.00
21545;BME280;10933;50.754;11.508;2022-08-19T09:58:51;99269.47;;;19.55;100.00
21545;BME280;10933;50.754;11.508;2022-08-19T10:01:24;99267.94;;;19.88;100.00
21545;BME280;10933;50.754;11.508;2022-08-19T10:03:53;99265.41;;;20.18;100.00
21545;BME280;10933;50.754;11.508;2022-08-19T10:06:21;99269.91;;;20.31;100.00
21545;BME280;10933;50.754;11.508;2022-08-19T10:08:47;99260.41;;;20.28;100.00
21545;BME280;10933;50.754;11.508;2022-08-19T10:11:15;99264.63;;;20.43;100.00
21545;BME280;10933;50.754;11.508;2022-08-19T10:13:43;99256.22;;;20.40;100.00
21545;BME280;10933;50.754;11.508;2022-08-19T10:16:13;99258.63;;;20.41;100.00
21545;BME280;10933;50.754;11.508;2022-08-19T10:18:40;99264.59;;;20.17;100.00
21545;BME280;10933;50.754;11.508;2022-08-19T10:21:15;99264.25;;;19.84;100.00
21545;BME280;10933;50.754;11.508;2022-08-19T10:23:45;99265.69;;;19.90;100.00
21545;BME280;10933;50.754;11.508;2022-08-19T10:26:14;99266.03;;;19.97;100.00
21545;BME280;10933;50.754;11.508;2022-08-19T10:28:40;99272.31;;;20.07;100.00
21545;BME280;10933;50.754;11.508;2022-08-19T10:31:13;99270.69;;;19.88;100.00
21545;BME280;10933;50.754;11.508;2022-08-19T10:33:41;99267.94;;;19.88;100.00
21545;BME280;10933;50.754;11.508;2022-08-19T10:36:11;99267.91;;;19.80;100.00
21545;BME280;10933;50.754;11.508;2022-08-19T10:38:38;99270.69;;;19.88;100.00
21545;BME280;10933;50.754;11.508;2022-08-19T10:41:18;99294.50;;;19.88;100.00
21545;BME280;10933;50.754;11.508;2022-08-19T10:43:45;99289.59;;;19.59;100.00
21545;BME280;10933;50.754;11.508;2022-08-19T10:46:14;99289.53;;;19.50;100.00
21545;BME280;10933;50.754;11.508;2022-08-19T10:48:41;99297.63;;;19.55;100.00
21545;BME280;10933;50.754;11.508;2022-08-19T10:51:09;99300.13;;;19.43;100.00
21545;BME280;10933;50.754;11.508;2022-08-19T10:53:54;99295.97;;;19.46;100.00
21545;BME280;10933;50.754;11.508;2022-08-19T10:56:21;99294.13;;;19.32;100.00
21545;BME280;10933;50.754;11.508;2022-08-19T10:59:08;99296.03;;;19.23;100.00
21545;BME280;10933;50.754;11.508;2022-08-19T11:01:35;99300.22;;;19.29;100.00
21545;BME280;10933;50.754;11.508;2022-08-19T11:04:03;99297.47;;;19.29;100.00
21545;BME280;10933;50.754;11.508;2022-08-19T11:06:31;99298.97;;;19.35;100.00
21545;BME280;10933;50.754;11.508;2022-08-19T11:08:58;99306.31;;;19.26;100.00
21545;BME280;10933;50.754;11.508;2022-08-19T11:11:26;99301.56;;;19.40;100.00
21545;BME280;10933;50.754;11.508;2022-08-19T11:13:52;99305.44;;;19.71;100.00
21545;BME280;10933;50.754;11.508;2022-08-19T11:16:25;99314.94;;;19.73;100.00
21545;BME280;10933;50.754;11.508;2022-08-19T11:18:56;99312.19;;;19.73;100.00
21545;BME280;10933;50.754;11.508;2022-08-19T11:21:25;99308.19;;;19.88;100.00
21545;BME280;10933;50.754;11.508;2022-08-19T11:23:57;99303.91;;;20.13;100.00
21545;BME280;10933;50.754;11.508;2022-08-19T11:26:25;99303.47;;;20.45;100.00
21545;BME280;10933;50.754;11.508;2022-08-19T11:28:51;99305.75;;;20.61;100.00
21545;BME280;10933;50.754;11.508;2022-08-19T11:31:25;99300.88;;;20.57;100.00
21545;BME280;10933;50.754;11.508;2022-08-19T11:33:52;99295.16;;;19.85;100.00
21545;BME280;10933;50.754;11.508;2022-08-19T11:36:20;99294.84;;;19.86;100.00
21545;BME280;10933;50.754;11.508;2022-08-19T11:38:48;99291.78;;;19.88;100.00
21545;BME280;10933;50.754;11.508;2022-08-19T11:41:17;99291.81;;;19.96;100.00
21545;BME280;10933;50.754;11.508;2022-08-19T11:43:43;99296.34;;;20.10;100.00
21545;BME280;10933;50.754;11.508;2022-08-19T11:46:11;99294.53;;;20.05;100.00
21545;BME280;10933;50.754;11.508;2022-08-19T11:48:38;99287.00;;;20.28;100.00
21545;BME280;10933;50.754;11.508;2022-08-19T11:51:07;99272.84;;;20.61;100.00
21545;BME280;10933;50.754;11.508;2022-08-19T11:53:35;99266.56;;;20.60;100.00
21545;BME280;10933;50.754;11.508;2022-08-19T11:56:02;99265.84;;;21.53;100.00
21545;BME280;10933;50.754;11.508;2022-08-19T11:58:29;99251.56;;;22.40;100.00
21545;BME280;10933;50.754;11.508;2022-08-19T12:00:55;99231.41;;;23.14;100.00
21545;BME280;10933;50.754;11.508;2022-08-19T12:03:22;99219.84;;;22.75;100.00
21545;BME280;10933;50.754;11.508;2022-08-19T12:05:49;99209.81;;;22.92;100.00
21545;BME280;10933;50.754;11.508;2022-08-19T12:08:16;99216.69;;;22.98;100.00
21545;BME280;10933;50.754;11.508;2022-08-19T12:10:44;99211.50;;;23.66;100.00
21545;BME280;10933;50.754;11.508;2022-08-19T12:13:11;99207.31;;;23.84;100.00
21545;BME280;10933;50.754;11.508;2022-08-19T12:15:41;99208.47;;;23.46;100.00
21545;BME280;10933;50.754;11.508;2022-08-19T12:18:09;99207.13;;;23.53;100.00
21545;BME280;10933;50.754;11.508;2022-08-19T12:20:39;99206.41;;;23.80;100.00
21545;BME280;10933;50.754;11.508;2022-08-19T12:23:07;99190.56;;;23.89;100.00
21545;BME280;10933;50.754;11.508;2022-08-19T12:25:35;99187.16;;;23.31;100.00
21545;BME280;10933;50.754;11.508;2022-08-19T12:28:02;99175.63;;;22.80;100.00
21545;BME280;10933;50.754;11.508;2022-08-19T12:30:28;99175.16;;;22.78;100.00
21545;BME280;10933;50.754;11.508;2022-08-19T12:32:54;99178.22;;;23.59;100.00
21545;BME280;10933;50.754;11.508;2022-08-19T12:35:21;99182.44;;;23.44;100.00
21545;BME280;10933;50.754;11.508;2022-08-19T12:37:48;99188.06;;;23.47;100.00
21545;BME280;10933;50.754;11.508;2022-08-19T12:40:16;99187.16;;;24.48;100.00
21545;BME280;10933;50.754;11.508;2022-08-19T12:42:44;99192.00;;;24.39;100.00
21545;BME280;10933;50.754;11.508;2022-08-19T12:45:11;99201.84;;;25.94;100.00
21545;BME280;10933;50.754;11.508;2022-08-19T12:47:38;99200.25;;;25.93;100.00
21545;BME280;10933;50.754;11.508;2022-08-19T12:50:06;99205.59;;;25.86;100.00
21545;BME280;10933;50.754;11.508;2022-08-19T12:52:35;99203.44;;;26.34;100.00
21545;BME280;10933;50.754;11.508;2022-08-19T12:55:08;99193.91;;;25.93;100.00
21545;BME280;10933;50.754;11.508;2022-08-19T12:57:34;99198.97;;;25.71;100.00
21545;BME280;10933;50.754;11.508;2022-08-19T13:00:21;99207.50;;;24.87;100.00